createdAt,value
2023-05-22T00:00:40.969Z,948.3
2023-05-22T00:01:43.114Z,948.3
2023-05-22T00:02:45.301Z,948.3
2023-05-22T00:03:47.357Z,948.3
2023-05-22T00:04:49.237Z,948.3
2023-05-22T00:05:50.953Z,948.3
2023-05-22T00:06:52.588Z,948.3
2023-05-22T00:07:54.314Z,948.3
2023-05-22T00:08:55.925Z,948.4
2023-05-22T00:09:57.561Z,948.3
2023-05-22T00:10:59.190Z,948.3
2023-05-22T00:12:00.824Z,948.3
2023-05-22T00:13:02.419Z,948.3
2023-05-22T00:14:04.163Z,948.3
2023-05-22T00:15:05.776Z,948.2
2023-05-22T00:16:07.533Z,948.2
2023-05-22T00:17:09.378Z,948.3
2023-05-22T00:18:11.372Z,948.3
2023-05-22T00:19:13.967Z,948.2
2023-05-22T00:20:15.898Z,948.2
2023-05-22T00:21:17.723Z,948.2
2023-05-22T00:22:19.523Z,948.2
2023-05-22T00:23:21.146Z,948.2
2023-05-22T00:24:22.879Z,948.2
2023-05-22T00:25:24.534Z,948.2
2023-05-22T00:26:26.288Z,948.2
2023-05-22T00:27:27.895Z,948.2
2023-05-22T00:28:29.516Z,948.2
2023-05-22T00:29:31.167Z,948.2
2023-05-22T00:30:32.774Z,948.2
2023-05-22T00:31:34.383Z,948.2
2023-05-22T00:32:36.200Z,948.2
2023-05-22T00:33:38.458Z,948.1
2023-05-22T00:34:40.600Z,948.1
2023-05-22T00:35:42.522Z,948.1
2023-05-22T00:36:44.144Z,948.1
2023-05-22T00:37:45.750Z,948.1
2023-05-22T00:38:47.526Z,948.1
2023-05-22T00:39:49.246Z,948.1
2023-05-22T00:40:50.862Z,948.2
2023-05-22T00:41:52.460Z,948.2
2023-05-22T00:42:54.040Z,948.2
2023-05-22T00:43:55.852Z,948.2
2023-05-22T00:44:57.505Z,948.2
2023-05-22T00:45:59.434Z,948.2
2023-05-22T00:47:01.339Z,948.2
2023-05-22T00:48:06.108Z,948.2
2023-05-22T00:49:07.982Z,948.1
2023-05-22T00:50:09.683Z,948.1
2023-05-22T00:51:11.360Z,948.1
2023-05-22T00:52:12.945Z,948.1
2023-05-22T00:53:14.576Z,948.2
2023-05-22T00:54:16.204Z,948.2
2023-05-22T00:55:17.832Z,948.2
2023-05-22T00:56:19.431Z,948.2
2023-05-22T00:57:21.055Z,948.2
2023-05-22T00:58:22.813Z,948.2
2023-05-22T00:59:24.631Z,948.1
2023-05-22T01:00:26.470Z,948.2
2023-05-22T01:01:28.246Z,948.2
2023-05-22T01:02:30.029Z,948.2
2023-05-22T01:03:31.954Z,948.2
2023-05-22T01:04:33.861Z,948.2
2023-05-22T01:05:35.556Z,948.2
2023-05-22T01:06:37.213Z,948.2
2023-05-22T01:07:38.871Z,948.2
2023-05-22T01:08:40.502Z,948.2
2023-05-22T01:09:42.156Z,948.2
2023-05-22T01:10:46.429Z,948.2
2023-05-22T01:11:48.416Z,948.2
2023-05-22T01:12:50.069Z,948.2
2023-05-22T01:13:51.741Z,948.2
2023-05-22T01:14:53.388Z,948.2
2023-05-22T01:15:55.108Z,948.2
2023-05-22T01:16:57.042Z,948.2
2023-05-22T01:18:01.568Z,948.2
2023-05-22T01:19:03.470Z,948.2
2023-05-22T01:20:05.177Z,948.2
2023-05-22T01:21:06.791Z,948.1
2023-05-22T01:22:08.507Z,948.1
2023-05-22T01:23:10.083Z,948.1
2023-05-22T01:24:11.812Z,948.1
2023-05-22T01:25:13.779Z,948.1
2023-05-22T01:26:15.403Z,948.1
2023-05-22T01:27:17.145Z,948.1
2023-05-22T01:28:18.920Z,948.1
2023-05-22T01:29:20.564Z,948.1
2023-05-22T01:30:22.146Z,948.1
2023-05-22T01:31:23.793Z,948.1
2023-05-22T01:32:25.759Z,948.1
2023-05-22T01:33:28.182Z,948
2023-05-22T01:34:30.067Z,948.1
2023-05-22T01:35:31.670Z,948.1
2023-05-22T01:36:33.400Z,948.1
2023-05-22T01:37:35.560Z,948.1
2023-05-22T01:38:37.142Z,948.1
2023-05-22T01:39:38.765Z,948
2023-05-22T01:40:41.214Z,948
2023-05-22T01:41:42.974Z,948
2023-05-22T01:42:44.588Z,948
2023-05-22T01:43:46.266Z,948
2023-05-22T01:44:47.912Z,948
2023-05-22T01:45:49.718Z,948
2023-05-22T01:46:51.443Z,948.1
2023-05-22T01:47:53.419Z,948
2023-05-22T01:48:55.086Z,948
2023-05-22T01:49:56.688Z,948.1
2023-05-22T01:50:58.283Z,948
2023-05-22T01:51:59.923Z,948
2023-05-22T01:53:01.713Z,948
2023-05-22T01:54:03.350Z,948
2023-05-22T01:55:05.211Z,948
2023-05-22T01:56:06.846Z,948
2023-05-22T01:57:08.520Z,948
2023-05-22T01:58:10.203Z,948
2023-05-22T01:59:11.848Z,948
2023-05-22T02:00:13.473Z,948
2023-05-22T02:01:15.288Z,948
2023-05-22T02:02:17.298Z,948
2023-05-22T02:03:19.598Z,948
2023-05-22T02:04:21.452Z,948
2023-05-22T02:05:23.073Z,948
2023-05-22T02:06:24.736Z,948
2023-05-22T02:07:26.470Z,948
2023-05-22T02:08:28.259Z,948
2023-05-22T02:09:29.908Z,948
2023-05-22T02:10:31.709Z,948
2023-05-22T02:11:33.465Z,948
2023-05-22T02:12:35.097Z,948
2023-05-22T02:13:36.772Z,948
2023-05-22T02:14:38.398Z,948
2023-05-22T02:15:40.205Z,948
2023-05-22T02:16:42.065Z,948
2023-05-22T02:17:43.901Z,948
2023-05-22T02:18:46.052Z,948
2023-05-22T02:19:47.776Z,948
2023-05-22T02:20:49.417Z,948
2023-05-22T02:21:51.048Z,948
2023-05-22T02:22:52.786Z,948.1
2023-05-22T02:23:54.478Z,948
2023-05-22T02:24:56.104Z,948
2023-05-22T02:25:57.768Z,948
2023-05-22T02:26:59.434Z,948
2023-05-22T02:28:01.762Z,948
2023-05-22T02:29:03.363Z,948
2023-05-22T02:30:05.001Z,948
2023-05-22T02:31:06.951Z,948
2023-05-22T02:32:08.779Z,948
2023-05-22T02:33:10.880Z,948
2023-05-22T02:34:12.749Z,948
2023-05-22T02:35:14.401Z,948.1
2023-05-22T02:36:16.173Z,948
2023-05-22T02:37:17.936Z,948.1
2023-05-22T02:38:19.606Z,948.1
2023-05-22T02:39:21.439Z,948
2023-05-22T02:40:23.162Z,948
2023-05-22T02:41:24.880Z,948.1
2023-05-22T02:42:26.654Z,948.1
2023-05-22T02:43:28.604Z,948
2023-05-22T02:44:30.366Z,948
2023-05-22T02:45:35.030Z,948
2023-05-22T02:46:36.862Z,948
2023-05-22T02:47:38.836Z,948
2023-05-22T02:48:40.647Z,948
2023-05-22T02:49:42.243Z,948
2023-05-22T02:50:43.901Z,948
2023-05-22T02:51:45.554Z,948
2023-05-22T02:52:47.327Z,948
2023-05-22T02:53:49.242Z,948
2023-05-22T02:54:51.231Z,948
2023-05-22T02:55:53.101Z,947.9
2023-05-22T02:56:54.845Z,948
2023-05-22T02:57:56.748Z,948
2023-05-22T02:58:58.488Z,948
2023-05-22T03:00:00.118Z,947.9
2023-05-22T03:01:01.785Z,947.9
2023-05-22T03:02:04.050Z,947.9
2023-05-22T03:03:06.240Z,947.9
2023-05-22T03:04:08.488Z,947.9
2023-05-22T03:05:10.831Z,947.9
2023-05-22T03:06:12.568Z,947.9
2023-05-22T03:07:14.170Z,947.9
2023-05-22T03:08:15.780Z,947.9
2023-05-22T03:09:17.665Z,947.9
2023-05-22T03:10:19.596Z,947.9
2023-05-22T03:11:21.284Z,947.9
2023-05-22T03:12:23.083Z,947.9
2023-05-22T03:13:24.700Z,947.9
2023-05-22T03:14:26.425Z,948
2023-05-22T03:15:28.089Z,948
2023-05-22T03:16:30.024Z,948
2023-05-22T03:17:31.942Z,948
2023-05-22T03:18:33.852Z,948
2023-05-22T03:19:35.553Z,948
2023-05-22T03:20:37.994Z,948
2023-05-22T03:21:40.683Z,948
2023-05-22T03:22:42.276Z,948
2023-05-22T03:23:44.035Z,948
2023-05-22T03:24:45.783Z,948
2023-05-22T03:25:47.555Z,948
2023-05-22T03:26:49.294Z,948
2023-05-22T03:27:51.119Z,948
2023-05-22T03:28:53.399Z,948
2023-05-22T03:29:55.224Z,948
2023-05-22T03:30:56.799Z,948
2023-05-22T03:31:58.396Z,948
2023-05-22T03:33:00.168Z,948
2023-05-22T03:34:02.164Z,948
2023-05-22T03:35:04.050Z,948
2023-05-22T03:36:05.630Z,948
2023-05-22T03:37:07.256Z,948
2023-05-22T03:38:08.864Z,948
2023-05-22T03:39:10.456Z,948
2023-05-22T03:40:12.118Z,948
2023-05-22T03:41:13.761Z,948
2023-05-22T03:42:15.371Z,948
2023-05-22T03:43:17.024Z,948
2023-05-22T03:44:18.765Z,948
2023-05-22T03:45:20.462Z,948
2023-05-22T03:46:22.539Z,948
2023-05-22T03:47:24.848Z,948
2023-05-22T03:48:26.683Z,948
2023-05-22T03:49:28.565Z,948.1
2023-05-22T03:50:30.398Z,948
2023-05-22T03:51:32.189Z,948
2023-05-22T03:52:33.836Z,948
2023-05-22T03:53:35.503Z,948
2023-05-22T03:54:37.094Z,948.1
2023-05-22T03:55:38.699Z,948
2023-05-22T03:56:40.342Z,948.1
2023-05-22T03:57:41.950Z,948.1
2023-05-22T03:58:43.645Z,948.1
2023-05-22T03:59:45.392Z,948.1
2023-05-22T04:00:47.151Z,948.1
2023-05-22T04:01:49.308Z,948.1
2023-05-22T04:02:51.630Z,948.1
2023-05-22T04:03:53.505Z,948.1
2023-05-22T04:04:55.213Z,948.1
2023-05-22T04:05:57.210Z,948.1
2023-05-22T04:06:58.784Z,948.1
2023-05-22T04:08:00.722Z,948.1
2023-05-22T04:09:02.669Z,948.1
2023-05-22T04:10:04.301Z,948.1
2023-05-22T04:11:06.025Z,948.1
2023-05-22T04:12:07.931Z,948.1
2023-05-22T04:13:09.540Z,948.1
2023-05-22T04:14:11.334Z,948.1
2023-05-22T04:15:13.139Z,948.1
2023-05-22T04:16:14.979Z,948.1
2023-05-22T04:17:16.753Z,948.1
2023-05-22T04:18:18.383Z,948.1
2023-05-22T04:19:20.366Z,948.1
2023-05-22T04:20:22.129Z,948.1
2023-05-22T04:21:23.888Z,948.1
2023-05-22T04:22:25.494Z,948.1
2023-05-22T04:23:27.162Z,948.1
2023-05-22T04:24:28.771Z,948.1
2023-05-22T04:25:30.527Z,948.1
2023-05-22T04:26:32.465Z,948.1
2023-05-22T04:27:34.452Z,948.1
2023-05-22T04:28:36.296Z,948.1
2023-05-22T04:29:38.438Z,948.2
2023-05-22T04:30:41.383Z,948.2
2023-05-22T04:31:44.338Z,948.1
2023-05-22T04:32:46.363Z,948.2
2023-05-22T04:33:49.207Z,948.2
2023-05-22T04:34:50.887Z,948.2
2023-05-22T04:35:52.778Z,948.2
2023-05-22T04:36:54.532Z,948.2
2023-05-22T04:37:56.191Z,948.2
2023-05-22T04:38:57.936Z,948.2
2023-05-22T04:39:59.565Z,948.2
2023-05-22T04:41:01.353Z,948.2
2023-05-22T04:42:03.191Z,948.2
2023-05-22T04:43:05.020Z,948.2
2023-05-22T04:44:07.014Z,948.2
2023-05-22T04:45:08.838Z,948.2
2023-05-22T04:46:10.944Z,948.2
2023-05-22T04:47:12.827Z,948.2
2023-05-22T04:48:15.230Z,948.2
2023-05-22T04:49:16.897Z,948.2
2023-05-22T04:50:18.634Z,948.2
2023-05-22T04:51:20.269Z,948.2
2023-05-22T04:52:21.970Z,948.2
2023-05-22T04:53:23.797Z,948.2
2023-05-22T04:54:25.616Z,948.2
2023-05-22T04:55:27.418Z,948.2
2023-05-22T04:56:37.697Z,948.2
2023-05-22T04:57:39.557Z,948.2
2023-05-22T04:58:41.375Z,948.1
2023-05-22T04:59:42.974Z,948.2
2023-05-22T05:00:44.861Z,948.2
2023-05-22T05:01:46.934Z,948.1
2023-05-22T05:02:48.790Z,948.2
2023-05-22T05:03:50.740Z,948.2
2023-05-22T05:04:53.307Z,948.2
2023-05-22T05:05:55.478Z,948.2
2023-05-22T05:06:57.203Z,948.2
2023-05-22T05:07:58.934Z,948.2
2023-05-22T05:09:00.880Z,948.2
2023-05-22T05:10:02.536Z,948.2
2023-05-22T05:11:04.232Z,948.2
2023-05-22T05:12:05.844Z,948.2
2023-05-22T05:13:07.517Z,948.2
2023-05-22T05:14:09.288Z,948.2
2023-05-22T05:15:11.141Z,948.3
2023-05-22T05:16:13.163Z,948.3
2023-05-22T05:17:14.910Z,948.3
2023-05-22T05:18:17.010Z,948.3
2023-05-22T05:19:19.020Z,948.3
2023-05-22T05:20:20.737Z,948.3
2023-05-22T05:21:22.423Z,948.3
2023-05-22T05:22:24.129Z,948.3
2023-05-22T05:23:25.811Z,948.3
2023-05-22T05:24:27.754Z,948.2
2023-05-22T05:25:30.183Z,948.2
2023-05-22T05:26:32.000Z,948.2
2023-05-22T05:27:34.303Z,948.2
2023-05-22T05:28:36.083Z,948.2
2023-05-22T05:29:37.949Z,948.2
2023-05-22T05:30:40.763Z,948.2
2023-05-22T05:31:43.528Z,948.2
2023-05-22T05:32:45.659Z,948.2
2023-05-22T05:33:47.509Z,948.3
2023-05-22T05:34:49.138Z,948.2
2023-05-22T05:35:50.785Z,948.3
2023-05-22T05:36:52.496Z,948.2
2023-05-22T05:37:54.177Z,948.3
2023-05-22T05:38:55.795Z,948.3
2023-05-22T05:39:57.441Z,948.3
2023-05-22T05:40:59.029Z,948.3
2023-05-22T05:42:00.884Z,948.3
2023-05-22T05:43:02.531Z,948.3
2023-05-22T05:44:04.131Z,948.3
2023-05-22T05:45:06.036Z,948.3
2023-05-22T05:46:08.093Z,948.3
2023-05-22T05:47:10.096Z,948.3
2023-05-22T05:48:12.455Z,948.3
2023-05-22T05:49:14.517Z,948.3
2023-05-22T05:50:16.383Z,948.3
2023-05-22T05:51:18.466Z,948.3
2023-05-22T05:52:21.708Z,948.3
2023-05-22T05:53:24.056Z,948.3
2023-05-22T05:54:26.029Z,948.3
2023-05-22T05:55:27.795Z,948.3
2023-05-22T05:56:29.506Z,948.3
2023-05-22T05:57:31.194Z,948.3
2023-05-22T05:58:32.818Z,948.3
2023-05-22T05:59:34.519Z,948.3
2023-05-22T06:00:36.306Z,948.3
2023-05-22T06:01:38.277Z,948.3
2023-05-22T06:02:40.395Z,948.3
2023-05-22T06:03:42.959Z,948.3
2023-05-22T06:04:45.246Z,948.3
2023-05-22T06:05:47.199Z,948.3
2023-05-22T06:06:49.144Z,948.3
2023-05-22T06:07:50.887Z,948.3
2023-05-22T06:08:52.488Z,948.3
2023-05-22T06:09:54.293Z,948.3
2023-05-22T06:10:56.226Z,948.3
2023-05-22T06:11:58.602Z,948.3
2023-05-22T06:13:00.399Z,948.3
2023-05-22T06:14:02.392Z,948.3
2023-05-22T06:15:04.164Z,948.3
2023-05-22T06:16:07.511Z,948.3
2023-05-22T06:17:09.390Z,948.3
2023-05-22T06:18:11.543Z,948.3
2023-05-22T06:19:13.905Z,948.3
2023-05-22T06:20:15.977Z,948.4
2023-05-22T06:21:17.907Z,948.4
2023-05-22T06:22:19.798Z,948.3
2023-05-22T06:23:21.731Z,948.4
2023-05-22T06:24:23.556Z,948.3
2023-05-22T06:25:26.049Z,948.3
2023-05-22T06:26:27.955Z,948.3
2023-05-22T06:27:29.939Z,948.3
2023-05-22T06:28:31.794Z,948.3
2023-05-22T06:29:33.734Z,948.3
2023-05-22T06:30:40.907Z,948.3
2023-05-22T06:31:43.017Z,948.3
2023-05-22T06:32:45.619Z,948.3
2023-05-22T06:33:48.314Z,948.3
2023-05-22T06:34:50.466Z,948.3
2023-05-22T06:35:52.415Z,948.3
2023-05-22T06:36:54.412Z,948.3
2023-05-22T06:37:56.214Z,948.4
2023-05-22T06:38:58.268Z,948.3
2023-05-22T06:40:00.145Z,948.3
2023-05-22T06:41:02.695Z,948.3
2023-05-22T06:42:04.924Z,948.3
2023-05-22T06:43:07.007Z,948.3
2023-05-22T06:44:09.266Z,948.3
2023-05-22T06:45:11.521Z,948.3
2023-05-22T06:46:13.561Z,948.3
2023-05-22T06:47:15.668Z,948.3
2023-05-22T06:48:17.581Z,948.3
2023-05-22T06:49:19.442Z,948.3
2023-05-22T06:50:21.898Z,948.3
2023-05-22T06:51:23.726Z,948.3
2023-05-22T06:52:25.552Z,948.3
2023-05-22T06:53:27.443Z,948.3
2023-05-22T06:54:29.294Z,948.3
2023-05-22T06:55:31.059Z,948.3
2023-05-22T06:56:32.999Z,948.3
2023-05-22T06:57:35.076Z,948.3
2023-05-22T06:58:37.001Z,948.3
2023-05-22T06:59:38.794Z,948.3
2023-05-22T07:00:41.659Z,948.3
2023-05-22T07:01:44.236Z,948.3
2023-05-22T07:02:47.004Z,948.3
2023-05-22T07:03:48.999Z,948.4
2023-05-22T07:04:50.834Z,948.3
2023-05-22T07:05:53.145Z,948.3
2023-05-22T07:06:55.109Z,948.3
2023-05-22T07:07:57.148Z,948.3
2023-05-22T07:08:58.916Z,948.3
2023-05-22T07:10:00.593Z,948.3
2023-05-22T07:11:02.665Z,948.3
2023-05-22T07:12:04.530Z,948.3
2023-05-22T07:13:06.280Z,948.3
2023-05-22T07:14:08.350Z,948.3
2023-05-22T07:15:10.881Z,948.3
2023-05-22T07:16:12.797Z,948.3
2023-05-22T07:17:14.679Z,948.3
2023-05-22T07:18:16.452Z,948.3
2023-05-22T07:19:18.428Z,948.2
2023-05-22T07:20:20.663Z,948.2
2023-05-22T07:21:22.707Z,948.3
2023-05-22T07:22:24.477Z,948.2
2023-05-22T07:23:26.931Z,948.2
2023-05-22T07:24:28.784Z,948.2
2023-05-22T07:25:30.656Z,948.2
2023-05-22T07:26:32.452Z,948.2
2023-05-22T07:27:35.593Z,948.3
2023-05-22T07:28:37.419Z,948.3
2023-05-22T07:29:39.217Z,948.3
2023-05-22T07:30:41.967Z,948.3
2023-05-22T07:31:44.318Z,948.3
2023-05-22T07:32:46.600Z,948.3
2023-05-22T07:33:48.682Z,948.3
2023-05-22T07:34:50.360Z,948.3
2023-05-22T07:35:52.316Z,948.3
2023-05-22T07:36:54.241Z,948.3
2023-05-22T07:37:56.012Z,948.3
2023-05-22T07:38:57.889Z,948.3
2023-05-22T07:39:59.715Z,948.3
2023-05-22T07:41:01.560Z,948.3
2023-05-22T07:42:03.421Z,948.2
2023-05-22T07:43:05.596Z,948.3
2023-05-22T07:44:07.372Z,948.3
2023-05-22T07:45:09.745Z,948.2
2023-05-22T07:46:12.085Z,948.2
2023-05-22T07:47:14.028Z,948.3
2023-05-22T07:48:16.299Z,948.2
2023-05-22T07:49:18.839Z,948.3
2023-05-22T07:50:20.542Z,948.2
2023-05-22T07:51:22.450Z,948.2
2023-05-22T07:52:24.376Z,948.2
2023-05-22T07:53:26.115Z,948.3
2023-05-22T07:54:27.923Z,948.2
2023-05-22T07:55:30.122Z,948.2
2023-05-22T07:56:32.095Z,948.2
2023-05-22T07:57:34.011Z,948.2
2023-05-22T07:58:35.880Z,948.2
2023-05-22T07:59:37.539Z,948.2
2023-05-22T08:00:39.552Z,948.2
2023-05-22T08:01:41.604Z,948.2
2023-05-22T08:02:45.385Z,948.2
2023-05-22T08:03:48.078Z,948.2
2023-05-22T08:04:50.849Z,948.2
2023-05-22T08:05:52.684Z,948.2
2023-05-22T08:06:54.561Z,948.2
2023-05-22T08:07:56.445Z,948.2
2023-05-22T08:08:58.127Z,948.2
2023-05-22T08:10:00.434Z,948.2
2023-05-22T08:11:05.359Z,948.2
2023-05-22T08:12:08.625Z,948.2
2023-05-22T08:13:11.389Z,948.2
2023-05-22T08:14:13.100Z,948.2
2023-05-22T08:15:14.860Z,948.2
2023-05-22T08:16:16.646Z,948.2
2023-05-22T08:17:18.462Z,948.2
2023-05-22T08:18:20.583Z,948.2
2023-05-22T08:19:22.644Z,948.2
2023-05-22T08:20:24.878Z,948.2
2023-05-22T08:21:26.813Z,948.2
2023-05-22T08:22:28.850Z,948.2
2023-05-22T08:23:30.821Z,948.2
2023-05-22T08:24:32.660Z,948.2
2023-05-22T08:25:34.447Z,948.2
2023-05-22T08:26:36.555Z,948.2
2023-05-22T08:27:38.543Z,948.2
2023-05-22T08:28:40.274Z,948.2
2023-05-22T08:29:42.009Z,948.2
2023-05-22T08:30:43.832Z,948.2
2023-05-22T08:31:45.750Z,948.2
2023-05-22T08:32:47.808Z,948.1
2023-05-22T08:33:50.390Z,948.2
2023-05-22T08:34:52.097Z,948.2
2023-05-22T08:35:53.907Z,948.2
2023-05-22T08:36:55.660Z,948.1
2023-05-22T08:37:58.027Z,948.2
2023-05-22T08:38:59.812Z,948.2
2023-05-22T08:40:02.747Z,948.2
2023-05-22T08:41:04.477Z,948.2
2023-05-22T08:42:06.135Z,948.2
2023-05-22T08:43:07.819Z,948.2
2023-05-22T08:44:10.011Z,948.2
2023-05-22T08:45:12.482Z,948.2
2023-05-22T08:46:14.398Z,948.2
2023-05-22T08:47:16.425Z,948.2
2023-05-22T08:48:18.248Z,948.2
2023-05-22T08:49:23.604Z,948.2
2023-05-22T08:50:26.257Z,948.2
2023-05-22T08:51:28.559Z,948.1
2023-05-22T08:52:30.383Z,948.1
2023-05-22T08:53:32.227Z,948.1
2023-05-22T08:54:34.060Z,948.1
2023-05-22T08:55:35.841Z,948.1
2023-05-22T08:56:56.540Z,948.2
2023-05-22T08:57:59.387Z,948.2
2023-05-22T08:59:01.675Z,948.1
2023-05-22T09:00:03.460Z,948.1
2023-05-22T09:01:05.598Z,948.1
2023-05-22T09:02:07.527Z,948.1
2023-05-22T09:03:09.830Z,948.1
2023-05-22T09:04:12.492Z,948
2023-05-22T09:05:14.454Z,948.1
2023-05-22T09:06:16.184Z,948.1
2023-05-22T09:07:18.714Z,948.1
2023-05-22T09:08:21.814Z,948.1
2023-05-22T09:09:23.973Z,948.1
2023-05-22T09:10:25.917Z,948.1
2023-05-22T09:11:27.768Z,948.1
2023-05-22T09:12:29.969Z,948.1
2023-05-22T09:13:32.093Z,948.1
2023-05-22T09:14:34.036Z,948.1
2023-05-22T09:15:35.885Z,948.1
2023-05-22T09:16:37.985Z,948.1
2023-05-22T09:17:40.254Z,948
2023-05-22T09:18:42.095Z,948
2023-05-22T09:19:43.975Z,948
2023-05-22T09:20:45.830Z,948
2023-05-22T09:21:48.420Z,948
2023-05-22T09:22:50.408Z,948
2023-05-22T09:23:52.318Z,948.1
2023-05-22T09:24:54.611Z,948.1
2023-05-22T09:25:56.858Z,948.1
2023-05-22T09:26:58.757Z,948
2023-05-22T09:28:00.648Z,948
2023-05-22T09:29:02.512Z,948
2023-05-22T09:30:04.457Z,948
2023-05-22T09:31:06.443Z,948
2023-05-22T09:32:08.597Z,948
2023-05-22T09:33:10.640Z,948
2023-05-22T09:34:12.406Z,948
2023-05-22T09:35:14.313Z,948
2023-05-22T09:36:16.377Z,948.1
2023-05-22T09:37:18.430Z,948.1
2023-05-22T09:38:20.411Z,948.1
2023-05-22T09:39:22.225Z,948
2023-05-22T09:40:23.999Z,947.9
2023-05-22T09:41:26.911Z,948
2023-05-22T09:42:28.603Z,948
2023-05-22T09:43:30.498Z,948.1
2023-05-22T09:44:32.577Z,948
2023-05-22T09:45:34.392Z,948.1
2023-05-22T09:46:36.127Z,948.1
2023-05-22T09:47:38.214Z,948.1
2023-05-22T09:48:40.005Z,948.1
2023-05-22T09:49:41.606Z,948
2023-05-22T09:50:43.274Z,948.1
2023-05-22T09:51:45.189Z,948.1
2023-05-22T09:52:47.066Z,948.1
2023-05-22T09:53:49.440Z,948.1
2023-05-22T09:54:51.261Z,948.1
2023-05-22T09:55:53.269Z,948
2023-05-22T09:56:55.126Z,948.1
2023-05-22T09:57:56.859Z,948.1
2023-05-22T09:58:58.571Z,948.1
2023-05-22T10:00:00.396Z,948.1
2023-05-22T10:01:02.118Z,948.1
2023-05-22T10:02:04.209Z,948.1
2023-05-22T10:03:06.325Z,948.1
2023-05-22T10:04:08.706Z,948
2023-05-22T10:05:10.738Z,948
2023-05-22T10:06:12.732Z,948.1
2023-05-22T10:07:14.705Z,948.1
2023-05-22T10:08:16.603Z,948.1
2023-05-22T10:09:20.941Z,948
2023-05-22T10:10:22.872Z,948
2023-05-22T10:11:24.806Z,948
2023-05-22T10:12:26.807Z,948
2023-05-22T10:13:28.712Z,948
2023-05-22T10:14:31.444Z,948.1
2023-05-22T10:15:33.430Z,948.1
2023-05-22T10:16:35.320Z,948
2023-05-22T10:17:37.325Z,948
2023-05-22T10:18:39.291Z,948.1
2023-05-22T10:19:47.200Z,948
2023-05-22T10:20:49.554Z,948
2023-05-22T10:21:51.479Z,948.1
2023-05-22T10:22:53.442Z,948
2023-05-22T10:23:55.306Z,948.1
2023-05-22T10:24:57.991Z,948.1
2023-05-22T10:26:00.181Z,948.1
2023-05-22T10:27:02.081Z,948.2
2023-05-22T10:28:03.916Z,948.2
2023-05-22T10:29:05.664Z,948.2
2023-05-22T10:30:07.284Z,948.2
2023-05-22T10:31:09.063Z,948.3
2023-05-22T10:32:11.121Z,948.2
2023-05-22T10:33:14.209Z,948.3
2023-05-22T10:34:16.569Z,948.3
2023-05-22T10:35:18.519Z,948.3
2023-05-22T10:36:20.478Z,948.3
2023-05-22T10:37:23.057Z,948.3
2023-05-22T10:38:24.897Z,948.3
2023-05-22T10:39:26.618Z,948.3
2023-05-22T10:40:28.622Z,948.2
2023-05-22T10:41:30.502Z,948.2
2023-05-22T10:42:32.905Z,948.2
2023-05-22T10:43:34.964Z,948.2
2023-05-22T10:44:36.803Z,948.2
2023-05-22T10:45:38.877Z,948.2
2023-05-22T10:46:40.739Z,948.2
2023-05-22T10:47:42.918Z,948.1
2023-05-22T10:48:44.885Z,948.2
2023-05-22T10:49:46.974Z,948.2
2023-05-22T10:50:49.033Z,948.1
2023-05-22T10:51:51.380Z,948.2
2023-05-22T10:52:53.267Z,948.1
2023-05-22T10:53:55.210Z,948.2
2023-05-22T10:54:57.040Z,948.1
2023-05-22T10:55:59.226Z,948.1
2023-05-22T10:57:00.956Z,948.1
2023-05-22T10:58:05.511Z,948.1
2023-05-22T10:59:07.529Z,948
2023-05-22T11:00:09.744Z,948
2023-05-22T11:01:11.784Z,948
2023-05-22T11:02:14.000Z,948
2023-05-22T11:03:19.244Z,948
2023-05-22T11:04:21.483Z,947.9
2023-05-22T11:05:23.322Z,948
2023-05-22T11:06:25.217Z,947.9
2023-05-22T11:07:26.849Z,947.9
2023-05-22T11:08:28.554Z,947.9
2023-05-22T11:09:30.309Z,948
2023-05-22T11:10:32.172Z,948
2023-05-22T11:11:34.260Z,948.1
2023-05-22T11:12:37.042Z,948.1
2023-05-22T11:13:39.761Z,948.1
2023-05-22T11:14:42.269Z,948.1
2023-05-22T11:15:44.006Z,948.2
2023-05-22T11:16:46.188Z,948.3
2023-05-22T11:17:48.011Z,948.1
2023-05-22T11:18:50.082Z,948.3
2023-05-22T11:19:52.438Z,948.3
2023-05-22T11:20:54.444Z,948.4
2023-05-22T11:21:56.211Z,948.3
2023-05-22T11:22:58.490Z,948.3
2023-05-22T11:24:00.241Z,948.4
2023-05-22T11:25:01.983Z,948.3
2023-05-22T11:26:03.732Z,948.3
2023-05-22T11:27:05.632Z,948.3
2023-05-22T11:28:07.617Z,948.4
2023-05-22T11:29:09.686Z,948.4
2023-05-22T11:30:11.590Z,948.5
2023-05-22T11:31:14.221Z,948.5
2023-05-22T11:32:16.241Z,948.6
2023-05-22T11:33:18.121Z,948.6
2023-05-22T11:34:19.839Z,948.6
2023-05-22T11:35:21.713Z,948.6
2023-05-22T11:36:23.647Z,948.6
2023-05-22T11:37:25.448Z,948.6
2023-05-22T11:38:27.754Z,948.7
2023-05-22T11:39:29.534Z,948.6
2023-05-22T11:40:31.253Z,948.7
2023-05-22T11:41:34.551Z,948.8
2023-05-22T11:42:36.520Z,948.7
2023-05-22T11:43:38.546Z,948.7
2023-05-22T11:44:40.606Z,948.8
2023-05-22T11:45:43.476Z,948.7
2023-05-22T11:46:45.379Z,948.7
2023-05-22T11:47:47.304Z,948.7
2023-05-22T11:48:49.751Z,948.7
2023-05-22T11:49:51.681Z,948.7
2023-05-22T11:50:53.444Z,948.7
2023-05-22T11:51:55.105Z,948.6
2023-05-22T11:52:56.941Z,948.6
2023-05-22T11:53:58.719Z,948.6
2023-05-22T11:55:00.657Z,948.5
2023-05-22T11:56:02.492Z,948.5
2023-05-22T11:57:04.268Z,948.5
2023-05-22T11:58:06.297Z,948.6
2023-05-22T11:59:08.127Z,948.6
2023-05-22T12:00:10.319Z,948.7
2023-05-22T12:01:13.496Z,948.7
2023-05-22T12:02:15.241Z,948.7
2023-05-22T12:03:17.217Z,948.6
2023-05-22T12:04:19.577Z,948.6
2023-05-22T12:05:21.684Z,948.6
2023-05-22T12:06:23.759Z,948.5
2023-05-22T12:07:25.869Z,948.6
2023-05-22T12:08:27.758Z,948.6
2023-05-22T12:09:29.710Z,948.6
2023-05-22T12:10:31.480Z,948.6
2023-05-22T12:11:33.300Z,948.6
2023-05-22T12:12:35.027Z,948.6
2023-05-22T12:13:37.013Z,948.7
2023-05-22T12:14:38.857Z,948.7
2023-05-22T12:15:41.516Z,948.6
2023-05-22T12:16:43.692Z,948.6
2023-05-22T12:17:45.851Z,948.6
2023-05-22T12:18:47.801Z,948.6
2023-05-22T12:19:49.639Z,948.6
2023-05-22T12:20:51.495Z,948.6
2023-05-22T12:21:53.184Z,948.6
2023-05-22T12:22:54.985Z,948.6
2023-05-22T12:23:57.037Z,948.5
2023-05-22T12:24:58.891Z,948.6
2023-05-22T12:26:00.742Z,948.6
2023-05-22T12:27:02.685Z,948.5
2023-05-22T12:28:04.530Z,948.5
2023-05-22T12:29:06.600Z,948.5
2023-05-22T12:30:08.410Z,948.5
2023-05-22T12:31:10.247Z,948.5
2023-05-22T12:32:12.428Z,948.5
2023-05-22T12:33:14.729Z,948.5
2023-05-22T12:34:17.066Z,948.5
2023-05-22T12:35:18.889Z,948.4
2023-05-22T12:36:21.091Z,948.4
2023-05-22T12:37:23.141Z,948.5
2023-05-22T12:38:25.099Z,948.4
2023-05-22T12:39:26.853Z,948.4
2023-05-22T12:40:28.808Z,948.4
2023-05-22T12:41:30.652Z,948.4
2023-05-22T12:42:32.488Z,948.4
2023-05-22T12:43:34.462Z,948.4
2023-05-22T12:44:36.476Z,948.4
2023-05-22T12:45:38.340Z,948.3
2023-05-22T12:46:40.520Z,948.3
2023-05-22T12:47:42.905Z,948.3
2023-05-22T12:48:44.979Z,948.3
2023-05-22T12:49:46.605Z,948.3
2023-05-22T12:50:48.515Z,948.2
2023-05-22T12:51:50.376Z,948.2
2023-05-22T12:52:52.323Z,948.2
2023-05-22T12:53:54.266Z,948.2
2023-05-22T12:54:56.118Z,948.3
2023-05-22T12:55:57.972Z,948.3
2023-05-22T12:56:59.823Z,948.3
2023-05-22T12:58:01.567Z,948.3
2023-05-22T12:59:03.736Z,948.3
2023-05-22T13:00:05.787Z,948.3
2023-05-22T13:01:07.562Z,948.3
2023-05-22T13:02:09.798Z,948.3
2023-05-22T13:03:11.863Z,948.3
2023-05-22T13:04:13.789Z,948.3
2023-05-22T13:05:15.949Z,948.3
2023-05-22T13:06:17.967Z,948.3
2023-05-22T13:07:19.835Z,948.3
2023-05-22T13:08:21.709Z,948.3
2023-05-22T13:09:23.545Z,948.2
2023-05-22T13:10:25.390Z,948.2
2023-05-22T13:11:27.256Z,948.2
2023-05-22T13:12:29.211Z,948.2
2023-05-22T13:13:31.047Z,948.2
2023-05-22T13:14:32.907Z,948.1
2023-05-22T13:15:34.871Z,948.1
2023-05-22T13:16:36.881Z,948.1
2023-05-22T13:17:39.372Z,948.1
2023-05-22T13:18:41.290Z,948.1
2023-05-22T13:19:43.203Z,948
2023-05-22T13:20:44.929Z,948
2023-05-22T13:21:46.748Z,948
2023-05-22T13:22:48.726Z,947.9
2023-05-22T13:23:50.528Z,947.9
2023-05-22T13:24:52.314Z,947.9
2023-05-22T13:25:54.390Z,947.9
2023-05-22T13:26:56.179Z,947.8
2023-05-22T13:27:58.298Z,947.8
2023-05-22T13:28:59.979Z,947.8